createdAt,value
2022-10-05T00:01:32.036Z,21.21
2022-10-05T00:04:10.891Z,21.20
2022-10-05T00:06:37.650Z,21.19
2022-10-05T00:09:13.698Z,21.20
2022-10-05T00:11:40.134Z,21.19
2022-10-05T00:14:16.669Z,21.19
2022-10-05T00:16:43.835Z,21.19
2022-10-05T00:19:20.704Z,21.18
2022-10-05T00:21:47.423Z,21.18
2022-10-05T00:24:17.941Z,21.18
2022-10-05T00:26:44.689Z,21.18
2022-10-05T00:29:22.256Z,21.16
2022-10-05T00:31:49.397Z,21.17
2022-10-05T00:34:16.936Z,21.18
2022-10-05T00:36:43.921Z,21.14
2022-10-05T00:39:10.666Z,21.17
2022-10-05T00:41:55.825Z,21.15
2022-10-05T00:44:28.172Z,21.16
2022-10-05T00:47:04.658Z,21.15
2022-10-05T00:49:42.089Z,21.13
2022-10-05T00:52:22.058Z,21.14
2022-10-05T00:54:59.728Z,21.15
2022-10-05T00:57:28.894Z,21.15
2022-10-05T01:00:13.031Z,21.14
2022-10-05T01:03:04.495Z,21.12
2022-10-05T01:06:08.013Z,21.13
2022-10-05T01:09:17.298Z,21.13
2022-10-05T01:11:58.007Z,21.11
2022-10-05T01:14:45.654Z,21.12
2022-10-05T01:17:33.562Z,21.09
2022-10-05T01:20:26.363Z,21.07
2022-10-05T01:23:17.210Z,21.07
2022-10-05T01:25:49.727Z,21.09
2022-10-05T01:28:26.105Z,21.07
2022-10-05T01:31:07.772Z,21.07
2022-10-05T01:33:43.782Z,21.08
2022-10-05T01:36:24.762Z,21.08
2022-10-05T01:39:28.115Z,21.06
2022-10-05T01:42:12.582Z,21.07
2022-10-05T01:44:43.826Z,21.08
2022-10-05T01:47:21.522Z,21.07
2022-10-05T01:50:02.366Z,21.06
2022-10-05T01:52:38.477Z,21.06
2022-10-05T01:55:26.876Z,21.07
2022-10-05T01:58:02.428Z,21.06
2022-10-05T02:00:32.611Z,21.05
2022-10-05T02:03:10.502Z,21.06
2022-10-05T02:06:01.772Z,21.04
2022-10-05T02:08:36.918Z,21.04
2022-10-05T02:11:12.165Z,21.03
2022-10-05T02:13:48.904Z,21.04
2022-10-05T02:16:29.922Z,21.03
2022-10-05T02:18:59.039Z,21.04
2022-10-05T02:21:26.764Z,21.03
2022-10-05T02:23:58.251Z,21.03
2022-10-05T02:26:26.065Z,21.03
2022-10-05T02:28:56.319Z,21.04
2022-10-05T02:31:28.648Z,21.03
2022-10-05T02:34:24.166Z,21.03
2022-10-05T02:37:12.182Z,21.05
2022-10-05T02:39:54.087Z,21.04
2022-10-05T02:42:31.012Z,21.05
2022-10-05T02:45:26.255Z,21.03
2022-10-05T02:48:10.922Z,21.00
2022-10-05T02:51:05.148Z,21.02
2022-10-05T02:53:59.231Z,20.99
2022-10-05T02:56:31.325Z,21.01
2022-10-05T02:59:24.270Z,21.00
2022-10-05T03:01:55.787Z,21.02
2022-10-05T03:04:37.738Z,21.00
2022-10-05T03:07:23.468Z,20.99
2022-10-05T03:10:17.216Z,21.00
2022-10-05T03:12:55.735Z,20.99
2022-10-05T03:15:40.176Z,20.98
2022-10-05T03:18:06.565Z,21.01
2022-10-05T03:20:57.176Z,20.99
2022-10-05T03:23:54.603Z,20.97
2022-10-05T03:26:49.523Z,20.96
2022-10-05T03:29:28.040Z,20.97
2022-10-05T03:32:27.760Z,20.95
2022-10-05T03:35:03.271Z,20.96
2022-10-05T03:37:41.946Z,20.96
2022-10-05T03:40:50.273Z,20.95
2022-10-05T03:43:25.720Z,20.96
2022-10-05T03:46:06.244Z,20.94
2022-10-05T03:48:43.457Z,20.97
2022-10-05T03:51:21.354Z,20.95
2022-10-05T03:53:53.112Z,20.95
2022-10-05T03:56:35.783Z,20.93
2022-10-05T03:59:45.659Z,20.94
2022-10-05T04:02:51.026Z,20.95
2022-10-05T04:05:22.868Z,20.96
2022-10-05T04:07:58.875Z,20.95
2022-10-05T04:10:27.301Z,20.93
2022-10-05T04:13:06.935Z,20.92
2022-10-05T04:15:39.809Z,20.94
2022-10-05T04:18:11.417Z,20.94
2022-10-05T04:20:45.127Z,20.93
2022-10-05T04:23:22.687Z,20.93
2022-10-05T04:25:53.833Z,20.91
2022-10-05T04:28:39.088Z,20.91
2022-10-05T04:31:11.501Z,20.93
2022-10-05T04:33:37.928Z,20.91
2022-10-05T04:36:13.521Z,20.93
2022-10-05T04:38:49.016Z,20.93
2022-10-05T04:41:18.553Z,20.92
2022-10-05T04:44:13.292Z,20.91
2022-10-05T04:46:57.835Z,20.91
2022-10-05T04:49:42.779Z,20.90
2022-10-05T04:52:23.357Z,20.89
2022-10-05T04:55:01.668Z,20.89
2022-10-05T04:57:56.209Z,20.90
2022-10-05T05:00:23.936Z,20.90
2022-10-05T05:03:21.458Z,20.89
2022-10-05T05:06:19.292Z,20.89
2022-10-05T05:09:24.008Z,20.89
2022-10-05T05:12:09.014Z,20.89
2022-10-05T05:14:53.109Z,20.88
2022-10-05T05:17:34.358Z,20.88
2022-10-05T05:20:22.122Z,20.87
2022-10-05T05:23:10.534Z,20.88
2022-10-05T05:25:47.025Z,20.87
2022-10-05T05:28:13.493Z,20.87
2022-10-05T05:31:07.973Z,20.87
2022-10-05T05:33:57.234Z,20.88
2022-10-05T05:36:34.615Z,20.89
2022-10-05T05:39:06.965Z,20.87
2022-10-05T05:41:47.278Z,20.87
2022-10-05T05:44:27.110Z,20.88
2022-10-05T05:47:05.103Z,20.89
2022-10-05T05:49:44.039Z,20.87
2022-10-05T05:52:20.196Z,20.87
2022-10-05T05:55:15.613Z,20.86
2022-10-05T05:57:49.417Z,20.88
2022-10-05T06:00:21.328Z,20.87
2022-10-05T06:02:55.658Z,20.87
2022-10-05T06:05:45.182Z,20.86
2022-10-05T06:08:30.133Z,20.85
2022-10-05T06:11:06.644Z,20.85
2022-10-05T06:13:37.225Z,20.86
2022-10-05T06:16:12.339Z,20.87
2022-10-05T06:18:43.284Z,20.86
2022-10-05T06:21:25.225Z,20.84
2022-10-05T06:23:59.394Z,20.86
2022-10-05T06:26:28.986Z,20.86
2022-10-05T06:29:03.722Z,20.86
2022-10-05T06:32:25.477Z,20.85
2022-10-05T06:35:39.813Z,20.86
2022-10-05T06:38:29.771Z,20.85
2022-10-05T06:41:30.257Z,20.83
2022-10-05T06:44:06.096Z,20.85
2022-10-05T06:46:35.508Z,20.85
2022-10-05T06:49:21.477Z,20.83
2022-10-05T06:52:06.824Z,20.83
2022-10-05T06:54:45.482Z,20.83
2022-10-05T06:57:30.814Z,20.84
2022-10-05T07:00:04.889Z,20.84
2022-10-05T07:02:54.356Z,20.85
2022-10-05T07:05:45.228Z,20.84
2022-10-05T07:08:17.381Z,20.84
2022-10-05T07:11:04.700Z,20.83
2022-10-05T07:13:51.427Z,20.82
2022-10-05T07:16:40.957Z,20.82
2022-10-05T07:19:19.267Z,20.84
2022-10-05T07:22:34.470Z,20.83
2022-10-05T07:25:26.436Z,20.83
2022-10-05T07:28:17.726Z,20.83
2022-10-05T07:30:55.983Z,20.83
2022-10-05T07:33:53.162Z,20.83
2022-10-05T07:37:02.933Z,20.81
2022-10-05T07:40:01.692Z,20.81
2022-10-05T07:42:48.872Z,20.82
2022-10-05T07:45:33.493Z,20.83
2022-10-05T07:48:12.167Z,20.83
2022-10-05T07:50:57.787Z,20.82
2022-10-05T07:53:39.809Z,20.84
2022-10-05T07:56:29.561Z,20.83
2022-10-05T07:59:04.273Z,20.83
2022-10-05T08:01:36.590Z,20.84
2022-10-05T08:04:37.020Z,20.82
2022-10-05T08:07:13.650Z,20.85
2022-10-05T08:09:51.345Z,20.87
2022-10-05T08:12:35.769Z,20.89
2022-10-05T08:15:25.668Z,20.87
2022-10-05T08:18:02.553Z,20.87
2022-10-05T08:20:52.530Z,20.86
2022-10-05T08:23:38.625Z,20.86
2022-10-05T08:26:10.738Z,20.87
2022-10-05T08:28:41.603Z,20.87
2022-10-05T08:31:19.083Z,20.88
2022-10-05T08:33:49.609Z,20.90
2022-10-05T08:36:24.078Z,20.90
2022-10-05T08:38:55.182Z,20.89
2022-10-05T08:41:36.730Z,20.89
2022-10-05T08:44:47.217Z,20.90
2022-10-05T08:47:19.848Z,20.89
2022-10-05T08:50:07.836Z,20.90
2022-10-05T08:52:41.723Z,20.87
2022-10-05T08:55:23.494Z,20.88
2022-10-05T08:57:49.933Z,20.90
2022-10-05T09:00:21.404Z,20.91
2022-10-05T09:03:09.632Z,20.90
2022-10-05T09:05:56.406Z,20.91
2022-10-05T09:08:46.785Z,20.91
2022-10-05T09:11:32.962Z,20.89
2022-10-05T09:14:17.109Z,20.91
2022-10-05T09:17:02.283Z,20.90
2022-10-05T09:19:59.703Z,20.91
2022-10-05T09:23:07.687Z,20.91
2022-10-05T09:25:42.741Z,20.90
2022-10-05T09:28:40.264Z,20.92
2022-10-05T09:31:16.798Z,20.92
2022-10-05T09:34:17.652Z,20.92
2022-10-05T09:37:08.675Z,20.92
2022-10-05T09:40:07.637Z,20.94
2022-10-05T09:42:50.779Z,20.93
2022-10-05T09:45:49.980Z,20.96
2022-10-05T09:48:42.981Z,20.96
2022-10-05T09:51:24.463Z,20.97
2022-10-05T09:54:17.169Z,20.99
2022-10-05T09:56:55.151Z,20.97
2022-10-05T10:00:00.296Z,20.98
2022-10-05T10:02:32.864Z,21.00
2022-10-05T10:05:24.195Z,21.00
2022-10-05T10:08:13.434Z,21.01
2022-10-05T10:11:07.889Z,21.00
2022-10-05T10:14:05.486Z,21.03
2022-10-05T10:16:59.886Z,21.01
2022-10-05T10:20:05.171Z,20.98
2022-10-05T10:22:42.199Z,21.01
2022-10-05T10:25:34.551Z,21.01
2022-10-05T10:28:26.234Z,21.02
2022-10-05T10:31:18.038Z,21.02
2022-10-05T10:34:09.925Z,21.01
2022-10-05T10:36:45.744Z,21.03
2022-10-05T10:39:19.762Z,21.01
2022-10-05T10:42:07.733Z,21.02
2022-10-05T10:45:16.067Z,21.03
2022-10-05T10:47:50.949Z,21.04
2022-10-05T10:50:33.208Z,21.04
2022-10-05T10:53:10.355Z,21.04
2022-10-05T10:56:01.465Z,21.05
2022-10-05T10:58:43.857Z,21.04
2022-10-05T11:01:22.262Z,21.05
2022-10-05T11:04:15.869Z,21.05
2022-10-05T11:07:15.785Z,21.05
2022-10-05T11:10:14.441Z,21.05
2022-10-05T11:13:08.787Z,21.05
2022-10-05T11:15:50.176Z,21.07
2022-10-05T11:18:39.407Z,21.05
2022-10-05T11:21:23.901Z,21.05
2022-10-05T11:24:39.005Z,21.06
2022-10-05T11:30:10.685Z,21.05
2022-10-05T11:33:23.135Z,21.05
2022-10-05T11:36:08.824Z,21.06
2022-10-05T11:39:02.056Z,21.07
2022-10-05T11:41:41.987Z,21.06
2022-10-05T11:44:35.394Z,21.06
2022-10-05T11:47:13.722Z,21.06
2022-10-05T11:49:48.507Z,21.08
2022-10-05T11:52:44.865Z,21.06
2022-10-05T11:55:34.171Z,21.06
2022-10-05T11:58:23.478Z,21.07
2022-10-05T12:00:58.422Z,21.07
2022-10-05T12:03:35.564Z,21.07
2022-10-05T12:06:37.810Z,21.07
2022-10-05T12:10:01.477Z,21.07
2022-10-05T12:12:35.492Z,21.08
2022-10-05T12:15:18.916Z,21.09
2022-10-05T12:17:57.820Z,21.10
2022-10-05T12:20:55.041Z,21.10
2022-10-05T12:23:42.729Z,21.10
2022-10-05T12:26:14.917Z,21.11
2022-10-05T12:28:55.556Z,21.10
2022-10-05T12:31:46.580Z,21.10
2022-10-05T12:34:23.469Z,21.12
2022-10-05T12:37:05.317Z,21.13
2022-10-05T12:39:46.184Z,21.13
2022-10-05T12:42:43.457Z,21.14
2022-10-05T12:45:30.133Z,21.14
2022-10-05T12:48:25.229Z,21.14
2022-10-05T12:51:00.652Z,21.14
2022-10-05T12:54:02.266Z,21.14
2022-10-05T12:56:44.575Z,21.15
2022-10-05T12:59:22.825Z,21.18
2022-10-05T13:02:14.332Z,21.19
2022-10-05T13:05:07.050Z,21.20
2022-10-05T13:08:04.627Z,21.23
2022-10-05T13:10:37.307Z,21.22
2022-10-05T13:13:06.542Z,21.23
2022-10-05T13:15:56.452Z,21.24
2022-10-05T13:18:25.699Z,21.25
2022-10-05T13:21:12.945Z,21.26
2022-10-05T13:24:04.647Z,21.24
2022-10-05T13:26:37.601Z,21.25
2022-10-05T13:29:13.203Z,21.26
2022-10-05T13:32:02.719Z,21.28
2022-10-05T13:34:55.515Z,21.29
2022-10-05T13:37:27.975Z,21.30
2022-10-05T13:40:06.346Z,21.29
2022-10-05T13:43:00.274Z,21.31
2022-10-05T13:45:55.698Z,21.29
2022-10-05T13:48:47.498Z,21.31
2022-10-05T13:51:43.129Z,21.33
2022-10-05T13:54:43.229Z,21.34
2022-10-05T13:57:21.173Z,21.35
2022-10-05T13:59:54.051Z,21.37
2022-10-05T14:02:22.893Z,21.38
2022-10-05T14:04:59.172Z,21.39
2022-10-05T14:07:37.023Z,21.40
2022-10-05T14:10:10.458Z,21.40
2022-10-05T14:12:42.480Z,21.40
2022-10-05T14:15:39.834Z,21.41
2022-10-05T14:18:27.295Z,21.45
2022-10-05T14:21:08.974Z,21.47
2022-10-05T14:23:35.614Z,21.50
2022-10-05T14:26:04.439Z,21.51
2022-10-05T14:28:34.969Z,21.51
2022-10-05T14:31:16.604Z,21.55
2022-10-05T14:33:43.502Z,21.53
2022-10-05T14:36:22.425Z,21.55
2022-10-05T14:38:56.041Z,21.56
2022-10-05T14:41:28.347Z,21.53
2022-10-05T14:44:13.469Z,21.54
2022-10-05T14:46:53.178Z,21.54
2022-10-05T14:49:27.386Z,21.53
2022-10-05T14:51:55.213Z,21.53
2022-10-05T14:54:43.782Z,21.54
2022-10-05T14:57:43.557Z,21.51
2022-10-05T15:00:12.309Z,21.51
2022-10-05T15:03:18.730Z,21.49
2022-10-05T15:05:50.357Z,21.47
2022-10-05T15:09:01.798Z,21.46
2022-10-05T15:11:42.588Z,21.45
2022-10-05T15:14:19.332Z,21.45
2022-10-05T15:16:49.881Z,21.43
2022-10-05T15:19:22.538Z,21.42
2022-10-05T15:22:10.335Z,21.40
2022-10-05T15:24:44.011Z,21.40
2022-10-05T15:27:21.874Z,21.39
2022-10-05T15:29:58.562Z,21.39
2022-10-05T15:32:49.776Z,21.37
2022-10-05T15:35:28.296Z,21.36
2022-10-05T15:38:04.624Z,21.37
2022-10-05T15:40:39.683Z,21.35
2022-10-05T15:43:19.704Z,21.35
2022-10-05T15:46:12.529Z,21.35
2022-10-05T15:49:30.297Z,21.33
2022-10-05T15:52:17.638Z,21.34
2022-10-05T15:55:02.493Z,21.32
2022-10-05T15:57:52.513Z,21.33
2022-10-05T16:00:23.400Z,21.31
2022-10-05T16:02:52.037Z,21.32
2022-10-05T16:06:04.905Z,21.31
2022-10-05T16:08:55.419Z,21.29
2022-10-05T16:12:06.745Z,21.29
2022-10-05T16:14:49.760Z,21.28
2022-10-05T16:17:53.632Z,21.29
2022-10-05T16:20:46.851Z,21.26
2022-10-05T16:23:24.178Z,21.28
2022-10-05T16:26:20.129Z,21.25
2022-10-05T16:29:01.754Z,21.26
2022-10-05T16:31:47.092Z,21.25
2022-10-05T16:34:17.229Z,21.24
2022-10-05T16:37:20.032Z,21.25
2022-10-05T16:39:51.957Z,21.24
2022-10-05T16:42:38.307Z,21.23
2022-10-05T16:45:45.381Z,21.22
2022-10-05T16:48:19.732Z,21.22
2022-10-05T16:50:49.562Z,21.21
2022-10-05T16:53:24.290Z,21.20
2022-10-05T16:56:01.124Z,21.19
2022-10-05T16:58:41.640Z,21.19
2022-10-05T17:01:28.601Z,21.19
2022-10-05T17:04:15.025Z,21.19
2022-10-05T17:06:50.446Z,21.18
2022-10-05T17:09:34.373Z,21.17
2022-10-05T17:12:16.128Z,21.18
2022-10-05T17:14:51.569Z,21.18
2022-10-05T17:17:33.334Z,21.18
2022-10-05T17:20:21.093Z,21.18
2022-10-05T17:22:54.938Z,21.16
2022-10-05T17:25:33.643Z,21.15
2022-10-05T17:28:18.305Z,21.15
2022-10-05T17:30:53.904Z,21.17
2022-10-05T17:33:22.778Z,21.20
2022-10-05T17:35:58.271Z,21.21
2022-10-05T17:38:30.439Z,21.25
2022-10-05T17:40:59.916Z,21.36
2022-10-05T17:43:33.653Z,21.45
2022-10-05T17:46:06.677Z,21.54
2022-10-05T17:48:37.725Z,21.65
2022-10-05T17:51:35.378Z,21.74
2022-10-05T17:54:36.534Z,21.87
2022-10-05T17:57:02.990Z,21.98
2022-10-05T17:59:58.350Z,22.07
2022-10-05T18:02:45.139Z,22.15
2022-10-05T18:05:16.246Z,22.22
2022-10-05T18:07:48.068Z,22.26
2022-10-05T18:10:28.796Z,22.30
2022-10-05T18:13:01.765Z,22.33
2022-10-05T18:15:28.198Z,22.35
2022-10-05T18:17:57.270Z,22.34
2022-10-05T18:20:30.110Z,22.36
2022-10-05T18:25:52.243Z,22.36
2022-10-05T18:28:52.519Z,22.37
2022-10-05T18:31:36.081Z,22.34
2022-10-05T18:34:20.748Z,22.32
2022-10-05T18:36:56.478Z,22.31
2022-10-05T18:39:35.352Z,22.30
2022-10-05T18:42:14.392Z,22.28
2022-10-05T18:44:46.194Z,22.29
2022-10-05T18:47:22.126Z,22.26
2022-10-05T18:50:10.285Z,22.25
2022-10-05T18:53:21.812Z,22.23
2022-10-05T18:56:14.989Z,22.24
2022-10-05T18:59:24.157Z,22.24
2022-10-05T19:02:12.438Z,22.23
2022-10-05T19:05:09.181Z,22.20
2022-10-05T19:08:00.323Z,22.18
2022-10-05T19:10:47.843Z,22.17
2022-10-05T19:13:31.953Z,22.16
2022-10-05T19:16:13.384Z,22.16
2022-10-05T19:18:42.499Z,22.15
2022-10-05T19:21:27.690Z,22.15
2022-10-05T19:24:31.451Z,22.14
2022-10-05T19:27:06.721Z,22.13
2022-10-05T19:29:59.213Z,22.14
2022-10-05T19:32:49.068Z,22.12
2022-10-05T19:35:21.523Z,22.12
2022-10-05T19:38:06.415Z,22.12
2022-10-05T19:40:49.737Z,22.12
2022-10-05T19:43:28.912Z,22.09
2022-10-05T19:46:04.834Z,22.08
2022-10-05T19:48:49.671Z,22.06
2022-10-05T19:51:29.470Z,22.06
2022-10-05T19:54:30.214Z,22.04
2022-10-05T19:56:57.876Z,22.03
2022-10-05T19:59:31.670Z,22.01
2022-10-05T20:01:59.323Z,22.02
2022-10-05T20:04:43.329Z,21.99
2022-10-05T20:07:17.019Z,21.99
2022-10-05T20:09:59.288Z,22.00
2022-10-05T20:12:51.933Z,21.99
2022-10-05T20:15:54.951Z,21.99
2022-10-05T20:19:02.109Z,21.99
2022-10-05T20:21:48.775Z,22.00
2022-10-05T20:24:26.497Z,22.00
2022-10-05T20:27:16.534Z,22.00
2022-10-05T20:29:44.897Z,21.99
2022-10-05T20:32:15.985Z,22.00
2022-10-05T20:34:45.313Z,22.00
2022-10-05T20:37:16.545Z,22.00
2022-10-05T20:39:43.343Z,22.02
2022-10-05T20:42:10.954Z,22.00
2022-10-05T20:44:38.160Z,22.03
2022-10-05T20:47:08.659Z,22.04
2022-10-05T20:49:36.673Z,22.05
2022-10-05T20:52:04.969Z,22.04
2022-10-05T20:54:31.615Z,22.05
2022-10-05T20:56:58.071Z,22.05
2022-10-05T20:59:25.619Z,22.06
2022-10-05T21:01:52.432Z,22.06
2022-10-05T21:04:24.930Z,22.06
2022-10-05T21:06:52.793Z,22.07
2022-10-05T21:09:21.558Z,22.08
2022-10-05T21:11:50.049Z,22.08
2022-10-05T21:14:16.968Z,22.09
2022-10-05T21:16:43.641Z,22.09
2022-10-05T21:19:14.969Z,22.10
2022-10-05T21:21:43.140Z,22.10
2022-10-05T21:24:13.245Z,22.10
2022-10-05T21:26:41.686Z,22.11
2022-10-05T21:29:12.492Z,22.12
2022-10-05T21:31:39.743Z,22.11
2022-10-05T21:34:06.239Z,22.13
2022-10-05T21:36:33.117Z,22.12
2022-10-05T21:38:59.782Z,22.14
2022-10-05T21:41:26.573Z,22.14
2022-10-05T21:43:53.002Z,22.15
2022-10-05T21:46:22.601Z,22.14
2022-10-05T21:48:49.889Z,22.15
2022-10-05T21:51:18.844Z,22.16
2022-10-05T21:53:54.958Z,22.14
2022-10-05T21:56:24.778Z,22.15
2022-10-05T21:58:53.922Z,22.14
2022-10-05T22:01:22.779Z,22.17
2022-10-05T22:03:49.725Z,22.17
2022-10-05T22:06:16.191Z,22.17
2022-10-05T22:08:43.019Z,22.18
2022-10-05T22:11:15.438Z,22.18
2022-10-05T22:13:50.298Z,22.19
2022-10-05T22:16:19.508Z,22.19
2022-10-05T22:18:46.308Z,22.19
2022-10-05T22:21:13.760Z,22.20
2022-10-05T22:23:42.284Z,22.18
2022-10-05T22:26:11.219Z,22.19
2022-10-05T22:28:39.747Z,22.19
2022-10-05T22:31:08.095Z,22.19
2022-10-05T22:33:34.648Z,22.20
2022-10-05T22:36:01.426Z,22.21
2022-10-05T22:38:30.287Z,22.21
2022-10-05T22:40:57.283Z,22.22
2022-10-05T22:43:29.605Z,22.20
2022-10-05T22:45:56.442Z,22.22
2022-10-05T22:48:23.080Z,22.21
2022-10-05T22:50:49.703Z,22.21
2022-10-05T22:53:16.209Z,22.22
2022-10-05T22:55:42.613Z,22.23
2022-10-05T22:58:09.114Z,22.23
2022-10-05T23:00:56.961Z,22.25
2022-10-05T23:03:21.983Z,22.25
2022-10-05T23:05:48.348Z,22.24
2022-10-05T23:08:16.046Z,22.25
2022-10-05T23:10:42.518Z,22.25
2022-10-05T23:13:08.936Z,22.26
2022-10-05T23:15:35.833Z,22.25
2022-10-05T23:18:02.239Z,22.26
2022-10-05T23:20:29.089Z,22.26
2022-10-05T23:22:55.469Z,22.27
2022-10-05T23:25:22.278Z,22.27
2022-10-05T23:27:48.763Z,22.26
2022-10-05T23:30:15.234Z,22.24
2022-10-05T23:32:43.611Z,22.25
2022-10-05T23:35:12.677Z,22.24
2022-10-05T23:37:43.491Z,22.24
2022-10-05T23:40:12.525Z,22.23
2022-10-05T23:42:40.090Z,22.22
2022-10-05T23:45:08.094Z,22.21
2022-10-05T23:47:34.499Z,22.20
2022-10-05T23:50:00.977Z,22.19
2022-10-05T23:52:27.423Z,22.18
2022-10-05T23:54:53.872Z,22.17
2022-10-05T23:57:20.475Z,22.15
2022-10-05T23:59:50.163Z,22.14
